createdAt,value
2023-02-19T00:01:37.750Z,99517.60
2023-02-19T00:04:08.369Z,99514.73
2023-02-19T00:06:36.635Z,99506.95
2023-02-19T00:09:04.583Z,99502.64
2023-02-19T00:11:34.179Z,99506.81
2023-02-19T00:14:03.023Z,99512.85
2023-02-19T00:16:35.550Z,99516.06
2023-02-19T00:19:05.934Z,99511.88
2023-02-19T00:21:33.461Z,99513.25
2023-02-19T00:24:04.107Z,99519.83
2023-02-19T00:26:31.877Z,99518.12
2023-02-19T00:29:00.642Z,99518.10
2023-02-19T00:31:32.639Z,99514.81
2023-02-19T00:34:06.928Z,99515.09
2023-02-19T00:36:36.621Z,99516.75
2023-02-19T00:39:05.549Z,99524.23
2023-02-19T00:41:33.122Z,99529.35
2023-02-19T00:44:06.007Z,99530.52
2023-02-19T00:46:39.179Z,99532.14
2023-02-19T00:49:08.416Z,99531.73
2023-02-19T00:51:38.162Z,99525.20
2023-02-19T00:54:06.660Z,99523.88
2023-02-19T00:56:34.365Z,99528.23
2023-02-19T00:59:01.560Z,99526.14
2023-02-19T01:01:28.715Z,99522.94
2023-02-19T01:03:56.312Z,99518.29
2023-02-19T01:06:23.643Z,99522.78
2023-02-19T01:08:51.163Z,99522.30
2023-02-19T01:11:20.533Z,99518.18
2023-02-19T01:13:48.084Z,99516.10
2023-02-19T01:16:19.257Z,99522.30
2023-02-19T01:18:47.942Z,99519.45
2023-02-19T01:21:18.240Z,99526.52
2023-02-19T01:23:46.732Z,99525.02
2023-02-19T01:26:17.028Z,99525.00
2023-02-19T01:28:45.414Z,99531.80
2023-02-19T01:31:15.571Z,99531.21
2023-02-19T01:33:47.053Z,99519.89
2023-02-19T01:36:14.970Z,99520.21
2023-02-19T01:38:42.889Z,99517.23
2023-02-19T01:41:16.364Z,99517.36
2023-02-19T01:44:05.348Z,99516.13
2023-02-19T01:46:34.160Z,99513.38
2023-02-19T01:49:15.512Z,99511.38
2023-02-19T01:51:48.364Z,99503.95
2023-02-19T01:54:20.247Z,99507.14
2023-02-19T01:56:49.010Z,99506.44
2023-02-19T01:59:18.312Z,99508.75
2023-02-19T02:01:45.627Z,99508.48
2023-02-19T02:04:14.790Z,99502.63
2023-02-19T02:06:50.615Z,99498.43
2023-02-19T02:09:41.703Z,99500.95
2023-02-19T02:12:10.091Z,99503.30
2023-02-19T02:14:40.562Z,99506.05
2023-02-19T02:17:30.625Z,99504.74
2023-02-19T02:20:34.491Z,99498.12
2023-02-19T02:23:07.788Z,99499.02
2023-02-19T02:26:02.348Z,99495.38
2023-02-19T02:28:52.041Z,99495.65
2023-02-19T02:31:34.588Z,99492.15
2023-02-19T02:34:07.836Z,99495.41
2023-02-19T02:36:40.038Z,99494.91
2023-02-19T02:39:13.046Z,99495.49
2023-02-19T02:41:46.068Z,99493.96
2023-02-19T02:44:13.493Z,99489.80
2023-02-19T02:46:45.047Z,99485.95
2023-02-19T02:49:22.051Z,99487.39
2023-02-19T02:51:54.727Z,99479.52
2023-02-19T02:54:51.321Z,99474.14
2023-02-19T02:57:20.754Z,99471.70
2023-02-19T02:59:54.102Z,99466.24
2023-02-19T03:02:30.236Z,99465.70
2023-02-19T03:05:28.898Z,99461.39
2023-02-19T03:08:10.128Z,99460.45
2023-02-19T03:10:47.574Z,99454.36
2023-02-19T03:13:48.239Z,99451.02
2023-02-19T03:16:41.814Z,99456.93
2023-02-19T03:19:20.190Z,99452.05
2023-02-19T03:22:13.988Z,99453.52
2023-02-19T03:25:08.720Z,99445.39
2023-02-19T03:27:37.576Z,99443.32
2023-02-19T03:30:28.664Z,99444.40
2023-02-19T03:33:02.560Z,99447.23
2023-02-19T03:35:36.860Z,99446.98
2023-02-19T03:38:20.564Z,99449.15
2023-02-19T03:41:07.131Z,99448.30
2023-02-19T03:44:02.596Z,99447.81
2023-02-19T03:46:35.178Z,99445.25
2023-02-19T03:49:13.716Z,99447.33
2023-02-19T03:51:51.261Z,99448.73
2023-02-19T03:54:33.805Z,99448.71
2023-02-19T03:57:23.918Z,99451.09
2023-02-19T04:00:05.915Z,99449.41
2023-02-19T04:03:07.446Z,99447.02
2023-02-19T04:05:37.849Z,99447.53
2023-02-19T04:08:14.531Z,99442.09
2023-02-19T04:10:47.130Z,99442.25
2023-02-19T04:13:26.336Z,99453.73
2023-02-19T04:15:57.179Z,99454.56
2023-02-19T04:18:33.234Z,99452.72
2023-02-19T04:21:00.931Z,99452.85
2023-02-19T04:23:34.129Z,99450.86
2023-02-19T04:26:02.522Z,99447.83
2023-02-19T04:28:30.152Z,99449.19
2023-02-19T04:30:57.248Z,99451.91
2023-02-19T04:33:24.478Z,99450.21
2023-02-19T04:35:51.761Z,99448.11
2023-02-19T04:38:18.905Z,99446.15
2023-02-19T04:40:46.886Z,99444.44
2023-02-19T04:43:13.929Z,99440.63
2023-02-19T04:45:41.116Z,99443.13
2023-02-19T04:48:09.256Z,99446.17
2023-02-19T04:50:39.322Z,99439.95
2023-02-19T04:53:07.346Z,99440.21
2023-02-19T04:55:38.229Z,99443.56
2023-02-19T04:58:05.734Z,99441.35
2023-02-19T05:00:34.191Z,99443.53
2023-02-19T05:03:01.811Z,99438.93
2023-02-19T05:05:29.032Z,99431.92
2023-02-19T05:07:56.205Z,99430.44
2023-02-19T05:10:23.455Z,99431.60
2023-02-19T05:12:50.558Z,99432.55
2023-02-19T05:15:17.832Z,99440.32
2023-02-19T05:17:44.888Z,99439.66
2023-02-19T05:20:12.035Z,99444.91
2023-02-19T05:22:39.288Z,99451.63
2023-02-19T05:25:06.547Z,99448.23
2023-02-19T05:27:33.922Z,99452.52
2023-02-19T05:30:01.209Z,99446.79
2023-02-19T05:32:28.346Z,99444.54
2023-02-19T05:34:55.424Z,99449.98
2023-02-19T05:37:22.502Z,99453.92
2023-02-19T05:39:49.930Z,99449.23
2023-02-19T05:42:17.158Z,99447.77
2023-02-19T05:44:44.287Z,99450.13
2023-02-19T05:47:11.560Z,99448.52
2023-02-19T05:49:38.712Z,99447.11
2023-02-19T05:52:05.953Z,99448.41
2023-02-19T05:54:33.090Z,99452.70
2023-02-19T05:57:00.192Z,99450.76
2023-02-19T05:59:27.818Z,99452.51
2023-02-19T06:01:55.788Z,99450.80
2023-02-19T06:04:23.598Z,99449.40
2023-02-19T06:06:50.984Z,99461.10
2023-02-19T06:09:18.195Z,99460.49
2023-02-19T06:11:45.584Z,99461.41
2023-02-19T06:14:14.061Z,99460.59
2023-02-19T06:16:41.707Z,99458.20
2023-02-19T06:19:09.180Z,99465.15
2023-02-19T06:21:36.289Z,99462.05
2023-02-19T06:24:07.885Z,99470.24
2023-02-19T06:26:35.121Z,99472.02
2023-02-19T06:29:02.230Z,99477.38
2023-02-19T06:31:29.741Z,99482.31
2023-02-19T06:33:57.180Z,99481.92
2023-02-19T06:36:24.340Z,99483.88
2023-02-19T06:38:51.970Z,99486.83
2023-02-19T06:41:19.455Z,99490.21
2023-02-19T06:43:46.848Z,99495.39
2023-02-19T06:46:14.741Z,99498.14
2023-02-19T06:48:43.370Z,99499.95
2023-02-19T06:51:13.421Z,99504.48
2023-02-19T06:53:40.686Z,99507.40
2023-02-19T06:56:23.274Z,99503.76
2023-02-19T06:58:50.424Z,99505.79
2023-02-19T07:01:17.800Z,99508.77
2023-02-19T07:03:45.113Z,99512.29
2023-02-19T07:06:12.188Z,99511.85
2023-02-19T07:08:39.389Z,99513.83
2023-02-19T07:11:06.563Z,99515.73
2023-02-19T07:13:33.951Z,99518.82
2023-02-19T07:16:03.621Z,99513.73
2023-02-19T07:18:31.692Z,99514.27
2023-02-19T07:21:07.019Z,99518.31
2023-02-19T07:23:34.289Z,99520.98
2023-02-19T07:26:01.593Z,99521.37
2023-02-19T07:28:29.110Z,99523.45
2023-02-19T07:31:02.032Z,99527.11
2023-02-19T07:33:29.505Z,99527.64
2023-02-19T07:35:56.876Z,99529.52
2023-02-19T07:38:25.566Z,99536.15
2023-02-19T07:40:57.511Z,99538.89
2023-02-19T07:43:25.396Z,99542.48
2023-02-19T07:45:53.459Z,99549.42
2023-02-19T07:48:20.878Z,99551.77
2023-02-19T07:50:58.834Z,99552.18
2023-02-19T07:53:28.548Z,99551.67
2023-02-19T07:56:01.278Z,99553.14
2023-02-19T07:58:29.450Z,99552.22
2023-02-19T08:00:56.784Z,99550.88
2023-02-19T08:03:24.322Z,99555.34
2023-02-19T08:05:53.858Z,99551.70
2023-02-19T08:08:21.046Z,99550.62
2023-02-19T08:11:06.606Z,99547.91
2023-02-19T08:13:34.367Z,99551.23
2023-02-19T08:16:16.916Z,99548.10
2023-02-19T08:18:47.434Z,99556.08
2023-02-19T08:21:14.763Z,99560.85
2023-02-19T08:23:41.878Z,99566.45
2023-02-19T08:26:09.985Z,99566.02
2023-02-19T08:28:37.239Z,99562.34
2023-02-19T08:31:07.403Z,99562.73
2023-02-19T08:33:35.234Z,99569.08
2023-02-19T08:36:07.002Z,99571.91
2023-02-19T08:38:36.021Z,99576.05
2023-02-19T08:41:07.518Z,99574.63
2023-02-19T08:43:35.608Z,99574.00
2023-02-19T08:46:03.344Z,99579.02
2023-02-19T08:48:30.642Z,99575.75
2023-02-19T08:51:04.033Z,99581.25
2023-02-19T08:53:32.368Z,99577.70
2023-02-19T08:55:59.955Z,99575.87
2023-02-19T08:58:27.033Z,99578.03
2023-02-19T09:00:54.410Z,99579.15
2023-02-19T09:03:21.694Z,99587.89
2023-02-19T09:05:48.917Z,99588.83
2023-02-19T09:08:16.044Z,99589.19
2023-02-19T09:10:43.421Z,99591.77
2023-02-19T09:13:10.673Z,99593.38
2023-02-19T09:15:38.993Z,99594.20
2023-02-19T09:18:06.384Z,99596.37
2023-02-19T09:20:33.586Z,99597.54
2023-02-19T09:23:00.716Z,99598.25
2023-02-19T09:25:27.863Z,99594.05
2023-02-19T09:27:56.167Z,99594.51
2023-02-19T09:30:23.536Z,99596.37
2023-02-19T09:32:51.167Z,99595.58
2023-02-19T09:35:18.521Z,99598.20
2023-02-19T09:37:45.948Z,99601.92
2023-02-19T09:40:14.482Z,99607.14
2023-02-19T09:42:43.654Z,99611.04
2023-02-19T09:45:20.096Z,99610.79
2023-02-19T09:47:47.971Z,99605.57
2023-02-19T09:50:20.632Z,99609.83
2023-02-19T09:53:01.509Z,99609.63
2023-02-19T09:55:34.826Z,99611.80
2023-02-19T09:58:15.100Z,99617.50
2023-02-19T10:00:42.838Z,99625.14
2023-02-19T10:03:20.304Z,99625.59
2023-02-19T10:05:48.143Z,99632.89
2023-02-19T10:08:20.675Z,99631.44
2023-02-19T10:10:48.123Z,99636.04
2023-02-19T10:13:30.979Z,99635.86
2023-02-19T10:16:00.806Z,99635.31
2023-02-19T10:18:33.358Z,99636.64
2023-02-19T10:21:00.590Z,99638.31
2023-02-19T10:23:28.169Z,99638.71
2023-02-19T10:25:57.832Z,99640.89
2023-02-19T10:28:30.217Z,99639.80
2023-02-19T10:30:59.952Z,99645.45
2023-02-19T10:33:27.680Z,99645.42
2023-02-19T10:36:01.605Z,99642.02
2023-02-19T10:38:31.227Z,99642.79
2023-02-19T10:41:06.171Z,99638.60
2023-02-19T10:43:40.056Z,99645.05
2023-02-19T10:46:16.737Z,99649.56
2023-02-19T10:48:55.444Z,99649.40
2023-02-19T10:51:38.953Z,99654.73
2023-02-19T10:54:24.676Z,99649.83
2023-02-19T10:56:51.865Z,99652.75
2023-02-19T10:59:18.954Z,99649.14
2023-02-19T11:01:55.967Z,99649.92
2023-02-19T11:04:24.139Z,99654.60
2023-02-19T11:06:51.674Z,99654.02
2023-02-19T11:09:36.721Z,99660.64
2023-02-19T11:12:05.812Z,99661.73
2023-02-19T11:14:34.457Z,99664.50
2023-02-19T11:17:05.679Z,99664.40
2023-02-19T11:19:41.374Z,99664.08
2023-02-19T11:22:28.853Z,99660.64
2023-02-19T11:24:59.418Z,99663.56
2023-02-19T11:27:26.760Z,99668.62
2023-02-19T11:29:54.007Z,99663.92
2023-02-19T11:32:21.393Z,99663.63
2023-02-19T11:34:48.578Z,99663.61
2023-02-19T11:37:21.177Z,99666.58
2023-02-19T11:39:50.856Z,99662.34
2023-02-19T11:42:45.561Z,99671.14
2023-02-19T11:45:12.748Z,99669.89
2023-02-19T11:47:52.123Z,99667.81
2023-02-19T11:50:29.082Z,99672.58
2023-02-19T11:53:14.782Z,99680.48
2023-02-19T11:56:12.919Z,99681.48
2023-02-19T11:58:40.098Z,99687.28
2023-02-19T12:01:26.158Z,99694.19
2023-02-19T12:03:55.952Z,99694.84
2023-02-19T12:06:42.757Z,99701.02
2023-02-19T12:09:37.838Z,99703.94
2023-02-19T12:12:16.973Z,99702.70
2023-02-19T12:14:56.137Z,99709.05
2023-02-19T12:17:41.895Z,99713.17
2023-02-19T12:20:14.824Z,99721.80
2023-02-19T12:23:09.675Z,99718.91
2023-02-19T12:26:01.868Z,99719.73
2023-02-19T12:28:28.961Z,99720.69
2023-02-19T12:31:13.258Z,99718.08
2023-02-19T12:34:26.878Z,99726.84
2023-02-19T12:37:25.108Z,99731.33
2023-02-19T12:40:36.196Z,99731.52
2023-02-19T12:43:09.309Z,99733.59
2023-02-19T12:45:52.519Z,99736.19
2023-02-19T12:48:49.109Z,99742.15
2023-02-19T12:51:25.284Z,99739.80
2023-02-19T12:54:06.414Z,99743.76
2023-02-19T12:56:39.249Z,99748.92
2023-02-19T12:59:06.440Z,99751.44
2023-02-19T13:01:41.823Z,99751.44
2023-02-19T13:04:26.128Z,99747.20
2023-02-19T13:07:14.275Z,99748.86
2023-02-19T13:09:52.070Z,99748.52
2023-02-19T13:12:30.769Z,99747.97
2023-02-19T13:15:02.509Z,99745.15
2023-02-19T13:17:41.709Z,99747.21
2023-02-19T13:20:27.519Z,99756.08
2023-02-19T13:23:45.647Z,99765.07
2023-02-19T13:26:40.850Z,99768.67
2023-02-19T13:29:29.959Z,99762.63
2023-02-19T13:32:03.250Z,99772.30
2023-02-19T13:34:52.454Z,99776.44
2023-02-19T13:37:20.830Z,99780.23
2023-02-19T13:39:50.873Z,99782.79
2023-02-19T13:42:38.887Z,99781.95
2023-02-19T13:45:06.830Z,99785.75
2023-02-19T13:48:00.144Z,99782.12
2023-02-19T13:50:29.091Z,99785.95
2023-02-19T13:52:57.863Z,99783.97
2023-02-19T13:55:44.206Z,99786.67
2023-02-19T13:58:33.442Z,99789.33
2023-02-19T14:01:02.936Z,99795.70
2023-02-19T14:03:39.259Z,99792.56
2023-02-19T14:06:10.012Z,99798.72
2023-02-19T14:08:47.573Z,99795.05
2023-02-19T14:11:16.229Z,99797.09
2023-02-19T14:13:52.276Z,99794.46
2023-02-19T14:16:28.426Z,99798.86
2023-02-19T14:18:56.473Z,99798.61
2023-02-19T14:21:27.963Z,99800.39
2023-02-19T14:23:58.208Z,99802.27
2023-02-19T14:26:26.840Z,99805.55
2023-02-19T14:28:54.596Z,99812.66
2023-02-19T14:31:29.548Z,99817.95
2023-02-19T14:34:03.827Z,99820.30
2023-02-19T14:36:45.637Z,99816.30
2023-02-19T14:39:20.038Z,99821.42
2023-02-19T14:41:51.440Z,99827.95
2023-02-19T14:44:26.315Z,99839.73
2023-02-19T14:47:05.296Z,99845.14
2023-02-19T14:49:45.931Z,99841.00
2023-02-19T14:52:25.284Z,99839.20
2023-02-19T14:55:06.329Z,99844.94
2023-02-19T14:57:39.159Z,99847.55
2023-02-19T15:00:22.466Z,99847.84
2023-02-19T15:02:59.780Z,99849.54
2023-02-19T15:05:32.850Z,99852.45
2023-02-19T15:08:03.363Z,99852.77
2023-02-19T15:10:33.466Z,99863.54
2023-02-19T15:13:08.283Z,99860.28
2023-02-19T15:15:43.458Z,99858.00
2023-02-19T15:18:19.701Z,99860.11
2023-02-19T15:20:47.635Z,99860.23
2023-02-19T15:23:25.422Z,99866.39
2023-02-19T15:25:53.374Z,99864.23
2023-02-19T15:28:26.354Z,99867.23
2023-02-19T15:30:59.654Z,99870.09
2023-02-19T15:33:28.186Z,99873.15
2023-02-19T15:36:01.547Z,99875.77
2023-02-19T15:38:29.859Z,99877.77
2023-02-19T15:40:58.710Z,99886.14
2023-02-19T15:43:35.094Z,99889.45
2023-02-19T15:46:10.132Z,99893.73
2023-02-19T15:48:46.110Z,99903.05
2023-02-19T15:51:22.271Z,99906.09
2023-02-19T15:53:57.291Z,99913.73
2023-02-19T15:56:30.913Z,99917.40
2023-02-19T15:59:03.974Z,99931.91
2023-02-19T16:01:34.512Z,99939.15
2023-02-19T16:04:02.525Z,99945.94
2023-02-19T16:06:30.687Z,99947.73
2023-02-19T16:09:03.997Z,99949.43
2023-02-19T16:11:38.015Z,99955.09
2023-02-19T16:14:32.965Z,99953.01
2023-02-19T16:17:23.265Z,99960.80
2023-02-19T16:19:56.853Z,99968.63
2023-02-19T16:22:29.265Z,99969.21
2023-02-19T16:24:58.934Z,99973.84
2023-02-19T16:27:32.012Z,99983.17
2023-02-19T16:30:03.736Z,99986.27
2023-02-19T16:32:31.072Z,99990.73
2023-02-19T16:34:58.650Z,99996.93
2023-02-19T16:37:38.196Z,100000.08
2023-02-19T16:40:08.306Z,100003.18
2023-02-19T16:42:36.816Z,100006.05
2023-02-19T16:45:04.505Z,100006.70
2023-02-19T16:47:34.343Z,100014.04
2023-02-19T16:50:03.139Z,100015.05
2023-02-19T16:52:31.279Z,100017.23
2023-02-19T16:54:58.638Z,100024.35
2023-02-19T16:57:25.763Z,100033.36
2023-02-19T16:59:52.988Z,100033.09
2023-02-19T17:02:22.698Z,100038.66
2023-02-19T17:04:51.927Z,100037.45
2023-02-19T17:07:19.279Z,100041.40
2023-02-19T17:09:46.457Z,100047.78
2023-02-19T17:12:16.958Z,100053.61
2023-02-19T17:14:44.236Z,100059.00
2023-02-19T17:17:11.625Z,100067.42
2023-02-19T17:19:39.768Z,100073.54
2023-02-19T17:22:07.389Z,100078.08
2023-02-19T17:24:34.567Z,100083.53
2023-02-19T17:27:01.681Z,100085.98
2023-02-19T17:29:30.651Z,100078.52
2023-02-19T17:31:57.870Z,100079.21
2023-02-19T17:34:25.066Z,100082.52
2023-02-19T17:36:52.202Z,100082.26
2023-02-19T17:39:19.569Z,100078.08
2023-02-19T17:41:46.758Z,100082.63
2023-02-19T17:44:13.963Z,100080.83
2023-02-19T17:46:42.084Z,100084.30
2023-02-19T17:49:12.669Z,100086.10
2023-02-19T17:51:39.865Z,100086.55
2023-02-19T17:54:08.355Z,100090.39
2023-02-19T17:56:36.067Z,100092.34
2023-02-19T17:59:03.262Z,100089.63
2023-02-19T18:01:30.379Z,100086.52
2023-02-19T18:03:57.715Z,100094.95
2023-02-19T18:06:24.820Z,100097.45
2023-02-19T18:08:53.327Z,100104.25
2023-02-19T18:11:22.334Z,100104.89
2023-02-19T18:13:52.898Z,100112.41
2023-02-19T18:16:20.791Z,100122.75
2023-02-19T18:18:47.948Z,100127.15
2023-02-19T18:21:15.508Z,100134.31
2023-02-19T18:23:42.754Z,100136.10
2023-02-19T18:26:11.540Z,100143.31
2023-02-19T18:28:38.935Z,100141.60
2023-02-19T18:31:06.864Z,100143.27
2023-02-19T18:33:35.251Z,100145.94
2023-02-19T18:36:03.862Z,100153.42
2023-02-19T18:38:30.967Z,100152.89
2023-02-19T18:40:58.950Z,100150.05
2023-02-19T18:43:26.525Z,100155.80
2023-02-19T18:45:53.660Z,100166.19
2023-02-19T18:48:20.816Z,100165.23
2023-02-19T18:50:48.029Z,100161.81
2023-02-19T18:53:15.198Z,100168.08
2023-02-19T18:55:42.374Z,100168.81
2023-02-19T18:58:09.524Z,100166.37
2023-02-19T19:00:36.730Z,100169.20
2023-02-19T19:03:04.053Z,100170.73
2023-02-19T19:05:31.566Z,100173.08
2023-02-19T19:08:02.009Z,100176.89
2023-02-19T19:10:29.272Z,100178.90
2023-02-19T19:12:56.578Z,100186.26
2023-02-19T19:15:24.187Z,100183.94
2023-02-19T19:17:51.647Z,100187.39
2023-02-19T19:20:23.526Z,100181.75
2023-02-19T19:22:52.758Z,100180.20
2023-02-19T19:25:21.451Z,100180.73
2023-02-19T19:27:50.819Z,100173.81
2023-02-19T19:30:20.205Z,100172.36
2023-02-19T19:32:52.298Z,100168.94
2023-02-19T19:35:21.374Z,100162.99
2023-02-19T19:37:49.608Z,100167.13
2023-02-19T19:40:17.740Z,100163.43
2023-02-19T19:42:44.910Z,100155.71
2023-02-19T19:45:12.562Z,100158.73
2023-02-19T19:47:39.756Z,100161.67
2023-02-19T19:50:07.112Z,100154.00
2023-02-19T19:52:34.543Z,100147.80
2023-02-19T19:55:01.867Z,100146.34
2023-02-19T19:57:28.939Z,100154.44
2023-02-19T19:59:55.987Z,100150.70
2023-02-19T20:02:23.964Z,100150.66
2023-02-19T20:04:51.501Z,100158.23
2023-02-19T20:07:18.798Z,100158.46
2023-02-19T20:09:50.146Z,100163.81
2023-02-19T20:12:18.032Z,100168.50
2023-02-19T20:14:46.362Z,100166.39
2023-02-19T20:17:14.395Z,100169.68
2023-02-19T20:19:41.534Z,100163.84
2023-02-19T20:22:08.726Z,100169.58
2023-02-19T20:24:35.965Z,100172.13
2023-02-19T20:27:03.345Z,100168.88
2023-02-19T20:29:34.659Z,100167.23
2023-02-19T20:32:03.895Z,100172.21
2023-02-19T20:34:31.826Z,100175.99
2023-02-19T20:36:59.378Z,100176.04
2023-02-19T20:39:29.371Z,100172.52
2023-02-19T20:41:57.778Z,100178.80
2023-02-19T20:44:26.201Z,100179.30
2023-02-19T20:46:54.027Z,100178.47
2023-02-19T20:49:23.453Z,100178.38
2023-02-19T20:51:54.104Z,100179.99
2023-02-19T20:54:23.866Z,100180.73
2023-02-19T20:56:53.309Z,100176.79
2023-02-19T20:59:23.213Z,100176.83
2023-02-19T21:01:50.523Z,100179.76
2023-02-19T21:04:19.156Z,100181.15
2023-02-19T21:06:46.351Z,100186.44
2023-02-19T21:09:13.836Z,100178.61
2023-02-19T21:11:40.986Z,100175.39
2023-02-19T21:14:09.578Z,100182.52
2023-02-19T21:16:36.908Z,100183.20
2023-02-19T21:19:04.561Z,100179.29
2023-02-19T21:21:32.068Z,100180.89
2023-02-19T21:24:00.423Z,100189.33
2023-02-19T21:26:38.128Z,100186.75
2023-02-19T21:29:07.144Z,100188.45
2023-02-19T21:31:42.901Z,100191.13
2023-02-19T21:34:12.101Z,100197.02
2023-02-19T21:36:39.936Z,100197.65
2023-02-19T21:39:08.912Z,100195.10
2023-02-19T21:41:36.130Z,100196.29
2023-02-19T21:44:04.196Z,100199.73
2023-02-19T21:46:33.070Z,100196.30
2023-02-19T21:49:00.998Z,100206.07
2023-02-19T21:51:34.340Z,100203.02
2023-02-19T21:54:02.522Z,100197.00
2023-02-19T21:56:33.962Z,100194.49
2023-02-19T21:59:03.108Z,100192.61
2023-02-19T22:01:33.348Z,100193.69
2023-02-19T22:04:00.940Z,100195.48
2023-02-19T22:06:30.653Z,100199.84
2023-02-19T22:08:58.772Z,100202.44
2023-02-19T22:11:26.126Z,100204.11
2023-02-19T22:13:53.351Z,100205.64
2023-02-19T22:16:20.854Z,100209.59
2023-02-19T22:18:53.104Z,100208.05
2023-02-19T22:21:21.746Z,100201.14
2023-02-19T22:23:51.221Z,100195.73
2023-02-19T22:26:20.192Z,100198.61
2023-02-19T22:28:47.980Z,100196.81
2023-02-19T22:31:16.953Z,100193.95
2023-02-19T22:33:44.957Z,100189.55
2023-02-19T22:36:20.263Z,100191.77
2023-02-19T22:38:48.308Z,100191.66
2023-02-19T22:41:17.234Z,100193.52
2023-02-19T22:43:44.948Z,100194.23
2023-02-19T22:46:17.211Z,100195.88
2023-02-19T22:48:44.336Z,100189.54
2023-02-19T22:51:19.597Z,100182.23
2023-02-19T22:53:51.265Z,100190.37
2023-02-19T22:56:20.379Z,100190.64
2023-02-19T22:58:47.558Z,100191.37
2023-02-19T23:01:15.129Z,100189.27
2023-02-19T23:03:57.362Z,100186.89
2023-02-19T23:06:31.008Z,100188.58
2023-02-19T23:09:02.058Z,100190.31
2023-02-19T23:11:32.449Z,100193.88
2023-02-19T23:13:59.996Z,100186.42
2023-02-19T23:16:27.382Z,100187.79
2023-02-19T23:18:54.717Z,100188.31
2023-02-19T23:21:22.996Z,100178.73
2023-02-19T23:23:50.480Z,100177.51
2023-02-19T23:26:18.292Z,100180.67
2023-02-19T23:28:45.879Z,100173.95
2023-02-19T23:31:13.939Z,100175.62
2023-02-19T23:33:41.670Z,100171.48
2023-02-19T23:36:10.066Z,100169.90
2023-02-19T23:38:37.631Z,100169.42
2023-02-19T23:41:09.750Z,100162.98
2023-02-19T23:43:37.439Z,100162.45
2023-02-19T23:46:04.932Z,100164.24
2023-02-19T23:48:32.452Z,100165.52
2023-02-19T23:50:59.652Z,100161.27
2023-02-19T23:53:26.922Z,100160.70
2023-02-19T23:55:53.976Z,100168.12
2023-02-19T23:58:21.082Z,100170.79
